Time;durP1;ratioP1;P1;durP2;ratioP2;P2;SDS_P1;SDS_P2;PMS_P1;PMS_P2;Temp;Humidity;BMP_temperature;BMP_pressure;BME280_temperature;BME280_humidity;BME280_pressure;Samples;Min_cycle;Max_cycle;Signal;HPM_P1;HPM_P2
2021/01/04 00:01:37;;;;;;;3.42;1.17;;;20.20;44.60;;;;;;6277482;28;20024;-47
2021/01/04 00:04:58;;;;;;;1.80;1.05;;;20.20;44.70;;;;;;6282543;28;20096;-48
2021/01/04 00:08:37;;;;;;;1.20;0.90;;;20.20;44.70;;;;;;6302014;28;20038;-50
2021/01/04 00:12:06;;;;;;;1.27;0.88;;;20.20;44.80;;;;;;6320563;28;20047;-53
2021/01/04 00:15:15;;;;;;;1.70;1.10;;;20.20;44.70;;;;;;6301942;28;20669;-48
2021/01/04 00:18:41;;;;;;;1.40;1.05;;;20.20;44.80;;;;;;6302106;28;20019;-47
2021/01/04 00:22:22;;;;;;;1.27;0.90;;;20.10;44.70;;;;;;6302041;28;20020;-52
2021/01/04 00:25:44;;;;;;;0.73;0.68;;;20.10;44.80;;;;;;6320563;28;20510;-49
2021/01/04 00:28:46;;;;;;;1.50;0.95;;;20.10;44.70;;;;;;6301621;28;20035;-49
2021/01/04 00:31:59;;;;;;;1.00;0.90;;;20.10;44.80;;;;;;6301411;28;20043;-48
2021/01/04 00:35:09;;;;;;;1.30;1.00;;;20.10;44.80;;;;;;6301493;28;20024;-48
2021/01/04 00:38:09;;;;;;;1.40;0.80;;;20.10;44.80;;;;;;6301273;28;20063;-48
2021/01/04 00:41:22;;;;;;;1.33;1.08;;;20.10;44.80;;;;;;6301434;28;20020;-47
2021/01/04 00:44:48;;;;;;;1.30;1.00;;;20.10;44.90;;;;;;6300951;28;20070;-49
2021/01/04 00:48:09;;;;;;;1.30;0.80;;;20.10;44.80;;;;;;6292060;28;20032;-50
2021/01/04 00:51:28;;;;;;;1.10;0.88;;;20.00;44.70;;;;;;6294374;28;20082;-51
2021/01/04 00:54:54;;;;;;;1.48;0.80;;;20.00;44.80;;;;;;6276003;28;20028;-48
2021/01/04 00:58:17;;;;;;;1.35;0.70;;;20.00;44.70;;;;;;6293944;28;20103;-48
2021/01/04 01:01:32;;;;;;;1.38;0.90;;;20.00;44.80;;;;;;6275915;28;20028;-52
2021/01/04 01:04:42;;;;;;;1.00;0.90;;;20.00;44.70;;;;;;6275822;28;20064;-50
2021/01/04 01:08:18;;;;;;;1.73;1.10;;;20.00;44.70;;;;;;6276006;28;20070;-47
2021/01/04 01:11:36;;;;;;;1.87;1.10;;;20.00;44.80;;;;;;6275847;28;20024;-53
2021/01/04 01:15:02;;;;;;;1.77;0.88;;;20.00;44.80;;;;;;6275696;28;20314;-48
2021/01/04 01:18:13;;;;;;;;;;;20.00;44.90;;;;;;6275607;28;20029;-48
2021/01/04 01:21:14;;;;;;;1.00;0.80;;;20.00;44.80;;;;;;6275336;28;19912;-47
2021/01/04 01:24:16;;;;;;;1.70;1.05;;;20.00;44.80;;;;;;6275260;28;20025;-49
2021/01/04 01:27:30;;;;;;;0.90;0.70;;;20.00;44.80;;;;;;6275593;28;20028;-48
2021/01/04 01:30:49;;;;;;;0.93;0.80;;;20.00;45.00;;;;;;6275618;28;20021;-48
2021/01/04 01:34:15;;;;;;;1.13;0.90;;;20.00;44.90;;;;;;6275146;28;20081;-48
2021/01/04 01:37:18;;;;;;;1.30;0.88;;;20.00;44.90;;;;;;6275340;28;20036;-48
2021/01/04 01:40:37;;;;;;;1.27;1.00;;;19.90;44.80;;;;;;6275000;28;20020;-47
2021/01/04 01:43:58;;;;;;;0.90;0.73;;;19.90;44.90;;;;;;6275139;28;20060;-49
2021/01/04 01:47:32;;;;;;;1.52;0.93;;;19.90;44.80;;;;;;6289520;28;20153;-48
2021/01/04 01:50:38;;;;;;;1.02;0.80;;;19.90;44.90;;;;;;6261657;28;20037;-50
2021/01/04 01:53:42;;;;;;;1.25;0.90;;;19.90;44.80;;;;;;6291920;28;20480;-48
2021/01/04 01:57:08;;;;;;;0.88;0.80;;;19.90;44.90;;;;;;6299913;28;20034;-48
2021/01/04 02:00:32;;;;;;;1.38;0.90;;;19.90;44.90;;;;;;6300475;28;20016;-48
2021/01/04 02:03:37;;;;;;;1.17;0.93;;;19.90;44.90;;;;;;6300165;28;20020;-51
2021/01/04 02:06:52;;;;;;;0.80;0.60;;;19.90;44.90;;;;;;6299875;28;20039;-49
2021/01/04 02:10:01;;;;;;;1.17;0.90;;;19.90;44.80;;;;;;6299758;28;20034;-48
2021/01/04 02:13:15;;;;;;;1.45;0.90;;;19.90;44.90;;;;;;6299824;28;20024;-48
2021/01/04 02:16:28;;;;;;;1.08;0.80;;;19.90;45.00;;;;;;6299412;28;20031;-48
2021/01/04 02:19:38;;;;;;;0.82;0.80;;;19.90;45.00;;;;;;6299728;28;20023;-49
2021/01/04 02:22:51;;;;;;;1.10;0.80;;;19.90;45.10;;;;;;6317579;28;20016;-49
2021/01/04 02:25:54;;;;;;;1.10;0.73;;;19.90;44.90;;;;;;6299243;28;20028;-51
2021/01/04 02:29:08;;;;;;;1.30;0.90;;;19.90;44.90;;;;;;6299611;28;20120;-51
2021/01/04 02:32:09;;;;;;;0.80;0.60;;;19.90;45.00;;;;;;6303901;28;20036;-48
2021/01/04 02:35:11;;;;;;;1.33;0.77;;;19.90;45.00;;;;;;6304275;28;20469;-48
2021/01/04 02:38:13;;;;;;;1.88;1.00;;;19.90;45.00;;;;;;6304179;28;20020;-47
2021/01/04 02:41:14;;;;;;;1.40;0.85;;;19.90;45.00;;;;;;6304268;28;20541;-48
2021/01/04 02:44:14;;;;;;;1.13;0.80;;;19.90;45.10;;;;;;6303920;28;20025;-48
2021/01/04 02:47:52;;;;;;;1.13;0.80;;;19.90;45.10;;;;;;6303962;28;20393;-48
2021/01/04 02:51:01;;;;;;;0.70;0.70;;;19.90;45.00;;;;;;6303845;28;20114;-48
2021/01/04 02:54:43;;;;;;;0.80;0.60;;;19.90;45.10;;;;;;6303769;28;20538;-48
2021/01/04 02:57:58;;;;;;;0.93;0.70;;;19.80;45.00;;;;;;6308373;28;20064;-49
2021/01/04 03:01:10;;;;;;;1.33;0.83;;;19.80;45.00;;;;;;6303914;28;20020;-49
2021/01/04 03:04:14;;;;;;;1.40;0.80;;;19.90;45.00;;;;;;6303429;28;20878;-49
2021/01/04 03:07:23;;;;;;;1.10;0.73;;;19.80;45.00;;;;;;6303708;28;20067;-48
2021/01/04 03:10:32;;;;;;;1.02;0.80;;;19.80;45.10;;;;;;6303495;28;20035;-50
2021/01/04 03:13:53;;;;;;;0.98;0.77;;;19.80;45.00;;;;;;6303283;28;20052;-51
2021/01/04 03:17:27;;;;;;;0.73;0.63;;;19.80;45.10;;;;;;6303275;28;20508;-48
2021/01/04 03:20:28;;;;;;;0.90;0.68;;;19.80;45.10;;;;;;6303354;28;20020;-49
2021/01/04 03:23:30;;;;;;;0.80;0.75;;;19.80;45.10;;;;;;6303051;28;20020;-49
2021/01/04 03:26:40;;;;;;;0.82;0.80;;;19.80;45.20;;;;;;6321342;28;20426;-49
2021/01/04 03:29:40;;;;;;;0.80;0.60;;;19.80;45.20;;;;;;6302973;28;20508;-48
2021/01/04 03:32:41;;;;;;;1.15;0.70;;;19.80;45.20;;;;;;6303028;28;20032;-49
2021/01/04 03:35:42;;;;;;;0.65;0.50;;;19.80;45.20;;;;;;6302744;28;20035;-49
2021/01/04 03:38:42;;;;;;;1.38;0.80;;;19.80;45.20;;;;;;6302941;28;20039;-48
2021/01/04 03:41:43;;;;;;;0.98;0.65;;;19.80;45.30;;;;;;6301686;28;20024;-48
2021/01/04 03:44:43;;;;;;;1.10;0.90;;;19.80;45.20;;;;;;6302522;28;20025;-51
2021/01/04 03:47:44;;;;;;;0.90;0.70;;;19.80;45.20;;;;;;6302704;28;20023;-50
2021/01/04 03:50:45;;;;;;;0.88;0.63;;;19.80;45.20;;;;;;6302503;28;20028;-52
2021/01/04 03:53:45;;;;;;;1.58;0.70;;;19.70;45.00;;;;;;6302454;28;20100;-48
2021/01/04 03:56:46;;;;;;;1.00;0.60;;;19.80;45.10;;;;;;6302407;28;20013;-48
2021/01/04 03:59:46;;;;;;;1.42;0.68;;;19.80;45.10;;;;;;6302440;28;20028;-52
2021/01/04 04:02:48;;;;;;;1.83;1.00;;;19.70;45.10;;;;;;6302404;28;20059;-49
2021/01/04 04:05:49;;;;;;;1.23;0.75;;;19.70;45.00;;;;;;6302324;28;20031;-47
2021/01/04 04:08:49;;;;;;;0.68;0.60;;;19.70;45.10;;;;;;6302385;28;20024;-48
2021/01/04 04:11:50;;;;;;;0.52;0.50;;;19.70;45.10;;;;;;6302114;28;20088;-48
2021/01/04 04:14:51;;;;;;;1.35;0.80;;;19.70;45.10;;;;;;6302060;28;20107;-50
2021/01/04 04:17:52;;;;;;;0.55;0.50;;;19.80;45.10;;;;;;6301777;28;20012;-50
2021/01/04 04:20:53;;;;;;;0.95;0.70;;;19.70;45.10;;;;;;6320114;28;20117;-52
2021/01/04 04:23:54;;;;;;;0.80;0.70;;;19.70;45.10;;;;;;6301568;28;20044;-48
2021/01/04 04:26:54;;;;;;;0.65;0.55;;;19.70;45.20;;;;;;6301445;28;20108;-49
2021/01/04 04:29:55;;;;;;;1.10;0.60;;;19.70;45.10;;;;;;6301525;28;20366;-53
2021/01/04 04:32:57;;;;;;;0.80;0.70;;;19.70;45.10;;;;;;6301483;28;20020;-48
2021/01/04 04:35:57;;;;;;;0.68;0.60;;;19.70;45.10;;;;;;6301093;28;20031;-46
2021/01/04 04:38:58;;;;;;;0.77;0.60;;;19.70;45.20;;;;;;6301529;28;20012;-47
2021/01/04 04:42:04;;;;;;;0.60;0.52;;;19.70;45.10;;;;;;6304038;28;20385;-51
2021/01/04 04:45:17;;;;;;;1.02;0.70;;;19.70;45.10;;;;;;6307068;28;20039;-49
2021/01/04 04:48:33;;;;;;;0.52;0.52;;;19.70;45.10;;;;;;6323417;28;20086;-49
2021/01/04 04:51:45;;;;;;;0.88;0.60;;;19.70;45.10;;;;;;6301314;28;20091;-49
2021/01/04 04:55:01;;;;;;;0.80;0.63;;;19.70;45.20;;;;;;6301097;28;20119;-48
2021/01/04 04:58:24;;;;;;;0.63;0.52;;;19.70;45.20;;;;;;6300995;28;20101;-50
2021/01/04 05:01:40;;;;;;;0.65;0.50;;;19.70;45.20;;;;;;6300960;28;20023;-52
2021/01/04 05:05:04;;;;;;;0.60;0.50;;;19.70;45.20;;;;;;6300931;28;20031;-48
2021/01/04 05:08:20;;;;;;;0.68;0.50;;;19.70;45.20;;;;;;6300750;28;20048;-48
2021/01/04 05:11:28;;;;;;;0.93;0.50;;;19.70;45.10;;;;;;6318801;28;20565;-49
2021/01/04 05:14:28;;;;;;;0.77;0.60;;;19.70;45.10;;;;;;6300527;28;20035;-50
2021/01/04 05:17:51;;;;;;;0.68;0.50;;;19.80;45.20;;;;;;6300780;28;20078;-49
2021/01/04 05:21:20;;;;;;;0.80;0.70;;;19.70;45.10;;;;;;6275606;28;20447;-48
2021/01/04 05:24:38;;;;;;;0.65;0.52;;;19.70;45.20;;;;;;6287701;28;20032;-51
2021/01/04 05:27:59;;;;;;;0.63;0.55;;;19.80;45.30;;;;;;6300463;28;20044;-48
2021/01/04 05:31:09;;;;;;;0.60;0.55;;;19.80;45.30;;;;;;6300433;28;20020;-49
2021/01/04 05:34:40;;;;;;;0.52;0.50;;;19.70;45.20;;;;;;6299895;28;20031;-48
2021/01/04 05:37:49;;;;;;;0.68;0.57;;;19.80;45.30;;;;;;6300153;28;20020;-48
2021/01/04 05:41:02;;;;;;;0.70;0.60;;;19.70;45.30;;;;;;6300040;28;20020;-49
2021/01/04 05:44:29;;;;;;;0.82;0.63;;;19.80;45.30;;;;;;6300067;28;20024;-48
2021/01/04 05:47:36;;;;;;;0.70;0.60;;;19.80;45.30;;;;;;6300301;28;20044;-48
2021/01/04 05:50:49;;;;;;;0.80;0.50;;;19.70;45.30;;;;;;6299882;28;20115;-50
2021/01/04 05:53:49;;;;;;;0.90;0.60;;;19.70;45.30;;;;;;6300485;28;20020;-48
2021/01/04 05:56:50;;;;;;;0.85;0.52;;;19.80;45.40;;;;;;6299760;28;20510;-49
2021/01/04 05:59:56;;;;;;;1.00;0.63;;;19.80;45.50;;;;;;6299541;28;20528;-48
2021/01/04 06:03:24;;;;;;;0.73;0.63;;;19.80;45.40;;;;;;6300282;28;20107;-49
2021/01/04 06:06:55;;;;;;;0.60;0.50;;;19.80;45.50;;;;;;6320810;28;20044;-48
2021/01/04 06:09:57;;;;;;;0.93;0.45;;;19.80;45.30;;;;;;6305213;28;20719;-50
2021/01/04 06:12:58;;;;;;;0.80;0.60;;;19.90;45.30;;;;;;6305118;28;20032;-51
2021/01/04 06:16:14;;;;;;;0.80;0.60;;;20.00;45.20;;;;;;6304958;28;20052;-48
2021/01/04 06:19:21;;;;;;;0.65;0.52;;;20.10;45.30;;;;;;6305069;28;20603;-49
2021/01/04 06:22:31;;;;;;;3.22;0.98;;;20.20;45.30;;;;;;6295768;28;20020;-49
2021/01/04 06:25:32;;;;;;;10.18;2.40;;;19.90;43.90;;;;;;6294655;28;20034;-52
2021/01/04 06:28:44;;;;;;;11.88;3.65;;;19.60;41.10;;;;;;6302592;28;20496;-49
2021/01/04 06:31:50;;;;;;;12.77;7.72;;;19.80;42.80;;;;;;6302158;28;20476;-49
2021/01/04 06:35:09;;;;;;;15.35;4.45;;;19.70;40.70;;;;;;6303005;28;20028;-49
2021/01/04 06:38:27;;;;;;;7.75;3.60;;;19.90;44.80;;;;;;6302887;28;20472;-52
2021/01/04 06:41:32;;;;;;;7.20;3.17;;;20.20;44.60;;;;;;6302816;28;20027;-49
2021/01/04 06:44:33;;;;;;;;;;;20.30;44.60;;;;;;6314636;28;20107;-53
2021/01/04 06:47:57;;;;;;;10.02;3.20;;;20.40;44.80;;;;;;6277828;28;19904;-49
2021/01/04 06:51:16;;;;;;;4.30;2.85;;;20.50;44.80;;;;;;6277910;28;20481;-55
2021/01/04 06:54:54;;;;;;;13.05;3.35;;;20.60;45.10;;;;;;6281857;28;20381;-50
2021/01/04 06:58:28;;;;;;;8.75;3.25;;;20.60;42.50;;;;;;6319281;28;20034;-47
2021/01/04 07:01:48;;;;;;;6.72;2.80;;;20.50;44.60;;;;;;6319643;28;20034;-48
2021/01/04 07:05:11;;;;;;;5.53;2.75;;;20.60;44.70;;;;;;6319746;28;20031;-54
2021/01/04 07:08:43;;;;;;;4.78;2.42;;;20.70;44.40;;;;;;6302946;28;20107;-49
2021/01/04 07:12:04;;;;;;;4.35;2.40;;;20.70;44.10;;;;;;6302955;28;20369;-50
2021/01/04 07:15:22;;;;;;;3.53;2.78;;;20.80;43.90;;;;;;6302894;28;20032;-48
2021/01/04 07:18:35;;;;;;;4.15;2.60;;;20.80;44.00;;;;;;6301663;28;20027;-49
2021/01/04 07:22:05;;;;;;;3.50;2.53;;;20.80;44.50;;;;;;6302619;28;20050;-49
2021/01/04 07:25:17;;;;;;;3.20;2.08;;;20.90;43.70;;;;;;6293420;28;20131;-50
2021/01/04 07:28:24;;;;;;;3.40;2.15;;;20.90;43.90;;;;;;6297506;28;20033;-53
2021/01/04 07:31:37;;;;;;;3.67;2.65;;;21.00;43.90;;;;;;6293739;28;20535;-51
2021/01/04 07:34:46;;;;;;;5.65;2.63;;;21.00;44.10;;;;;;6302199;28;20024;-52
2021/01/04 07:38:23;;;;;;;3.25;2.30;;;21.00;43.80;;;;;;6302874;28;20024;-48
2021/01/04 07:41:48;;;;;;;3.80;2.20;;;21.00;44.20;;;;;;6302050;28;20021;-49
2021/01/04 07:45:07;;;;;;;4.10;2.17;;;21.00;43.90;;;;;;6302188;28;20035;-48
2021/01/04 07:48:34;;;;;;;2.60;1.88;;;21.00;43.80;;;;;;6301736;28;20066;-50
2021/01/04 07:52:29;;;;;;;3.10;2.38;;;21.10;43.60;;;;;;6301876;28;20016;-51
2021/01/04 07:55:51;;;;;;;10.13;2.25;;;21.10;43.40;;;;;;6192380;28;20028;-50
2021/01/04 07:59:29;;;;;;;9.13;2.53;;;21.00;43.30;;;;;;6301958;28;20024;-49
2021/01/04 08:02:50;;;;;;;6.18;2.28;;;21.00;42.90;;;;;;6318520;28;20106;-50
2021/01/04 08:06:35;;;;;;;6.38;2.65;;;21.10;42.20;;;;;;6301907;28;20031;-62
2021/01/04 08:10:10;;;;;;;3.40;2.20;;;21.20;43.60;;;;;;6295923;28;20056;-61
2021/01/04 08:13:58;;;;;;;6.82;2.47;;;21.20;42.80;;;;;;6287353;28;20119;-63
2021/01/04 08:17:13;;;;;;;5.55;2.40;;;21.20;43.30;;;;;;6197837;28;20041;-60
2021/01/04 08:20:17;;;;;;;4.63;2.40;;;21.20;43.00;;;;;;6275999;28;20370;-62
2021/01/04 08:23:36;;;;;;;5.67;2.13;;;21.20;43.00;;;;;;6250804;28;20061;-60
2021/01/04 08:26:55;;;;;;;3.70;2.13;;;21.20;43.10;;;;;;6270512;28;20482;-63
2021/01/04 08:30:21;;;;;;;2.97;1.80;;;21.20;43.10;;;;;;6261032;28;20047;-62
2021/01/04 08:33:29;;;;;;;;;;;21.20;43.20;;;;;;6289773;28;20029;-61
2021/01/04 08:36:48;;;;;;;11.43;2.55;;;21.30;43.40;;;;;;6285437;28;19954;-61
2021/01/04 08:39:51;;;;;;;3.33;2.13;;;21.20;43.30;;;;;;6275457;28;20396;-63
2021/01/04 08:43:05;;;;;;;3.40;2.40;;;21.30;43.40;;;;;;6266479;28;20028;-58
2021/01/04 08:46:21;;;;;;;6.68;2.60;;;21.30;43.60;;;;;;6271674;28;20032;-59
2021/01/04 08:49:27;;;;;;;3.67;2.30;;;21.30;43.60;;;;;;6266351;28;20029;-59
2021/01/04 08:52:43;;;;;;;6.97;2.25;;;21.30;43.40;;;;;;6257398;28;20044;-60
2021/01/04 08:55:45;;;;;;;6.78;2.47;;;21.30;43.70;;;;;;6267567;28;20064;-56
2021/01/04 08:58:47;;;;;;;4.32;2.30;;;21.30;43.70;;;;;;6250651;28;20477;-59
2021/01/04 09:01:51;;;;;;;9.55;2.60;;;21.30;43.60;;;;;;6267077;28;20650;-59
2021/01/04 09:05:01;;;;;;;6.82;2.35;;;21.30;43.60;;;;;;6249753;28;20033;-58
2021/01/04 09:08:04;;;;;;;6.13;2.65;;;21.30;43.60;;;;;;6250375;28;20091;-59
2021/01/04 09:11:08;;;;;;;3.80;2.40;;;21.30;43.60;;;;;;6250541;28;20025;-61
2021/01/04 09:14:25;;;;;;;5.95;2.90;;;21.30;43.50;;;;;;6266316;28;20439;-61
2021/01/04 09:17:32;;;;;;;4.95;2.55;;;21.30;43.50;;;;;;6250139;28;20032;-61
2021/01/04 09:20:47;;;;;;;6.80;2.67;;;21.30;43.50;;;;;;6267727;28;20033;-60
2021/01/04 09:23:47;;;;;;;5.15;2.50;;;21.40;44.10;;;;;;6249721;28;20021;-61
2021/01/04 09:26:50;;;;;;;3.22;2.30;;;21.40;43.50;;;;;;6265167;28;20029;-61
2021/01/04 09:29:55;;;;;;;6.05;2.67;;;21.40;43.40;;;;;;6275089;28;20036;-58
2021/01/04 09:33:10;;;;;;;5.68;2.35;;;21.40;43.50;;;;;;6266158;28;20111;-61
2021/01/04 09:36:12;;;;;;;5.07;2.53;;;21.40;43.40;;;;;;6274149;28;20043;-61
2021/01/04 09:39:15;;;;;;;4.95;2.05;;;21.50;43.70;;;;;;6273950;28;20032;-59
2021/01/04 09:42:24;;;;;;;4.10;2.70;;;21.50;43.60;;;;;;6273294;28;20694;-59
2021/01/04 09:45:25;;;;;;;4.30;2.28;;;21.50;44.30;;;;;;6274475;28;20028;-59
2021/01/04 09:48:32;;;;;;;3.40;2.60;;;21.40;43.50;;;;;;6287474;28;20601;-62
2021/01/04 09:51:48;;;;;;;4.40;2.50;;;21.50;43.80;;;;;;6273778;28;20082;-61
2021/01/04 09:54:51;;;;;;;;;;;21.50;43.60;;;;;;6274154;28;20020;-61
2021/01/04 09:57:51;;;;;;;3.72;2.50;;;21.50;43.80;;;;;;6276225;28;20012;-61
2021/01/04 10:01:05;;;;;;;3.08;2.33;;;21.50;43.70;;;;;;6248659;28;20033;-61
2021/01/04 10:04:06;;;;;;;3.22;2.55;;;21.50;43.60;;;;;;6273191;28;20637;-60
2021/01/04 10:07:09;;;;;;;3.90;2.65;;;21.50;43.70;;;;;;6274406;28;20021;-58
2021/01/04 10:10:14;;;;;;;4.28;2.60;;;21.50;43.80;;;;;;6292232;28;20021;-61
2021/01/04 10:13:15;;;;;;;4.90;2.47;;;21.50;43.80;;;;;;6273446;28;20024;-61
2021/01/04 10:16:21;;;;;;;9.82;2.78;;;21.50;43.80;;;;;;6274064;28;20524;-60
2021/01/04 10:19:28;;;;;;;6.22;2.60;;;21.60;44.10;;;;;;6274166;28;20558;-60
2021/01/04 10:22:37;;;;;;;6.65;2.42;;;21.60;44.00;;;;;;6273831;28;20020;-59
2021/01/04 10:25:49;;;;;;;3.88;2.30;;;21.50;43.80;;;;;;6274158;28;20028;-61
2021/01/04 10:28:50;;;;;;;3.67;2.25;;;21.50;43.70;;;;;;6270413;28;20029;-57
2021/01/04 10:32:01;;;;;;;4.65;2.67;;;21.50;43.70;;;;;;6273148;28;20035;-61
2021/01/04 10:35:05;;;;;;;6.95;2.40;;;21.50;43.70;;;;;;6291469;28;20044;-60
2021/01/04 10:38:12;;;;;;;5.20;2.60;;;21.50;43.80;;;;;;6273828;28;20020;-60
2021/01/04 10:41:15;;;;;;;4.38;2.33;;;21.60;43.90;;;;;;6285601;28;20020;-60
2021/01/04 10:44:25;;;;;;;3.38;2.30;;;21.50;43.80;;;;;;6290474;28;20402;-60
2021/01/04 10:47:38;;;;;;;5.50;2.45;;;21.50;43.80;;;;;;6290419;28;20028;-61
2021/01/04 10:50:40;;;;;;;4.35;2.50;;;21.50;43.80;;;;;;6292356;28;20482;-60
2021/01/04 10:53:44;;;;;;;3.90;2.70;;;21.50;43.80;;;;;;6296128;28;20506;-59
2021/01/04 10:57:12;;;;;;;3.53;2.65;;;21.60;43.90;;;;;;6278195;28;20036;-60
2021/01/04 11:00:24;;;;;;;5.60;3.50;;;21.40;43.30;;;;;;6278563;28;20025;-61
2021/01/04 11:03:24;;;;;;;6.25;3.40;;;21.10;39.60;;;;;;6277376;28;20040;-59
2021/01/04 11:06:32;;;;;;;15.77;4.10;;;21.00;37.30;;;;;;6278113;28;20669;-63
2021/01/04 11:09:36;;;;;;;5.65;3.30;;;21.00;41.70;;;;;;6269542;28;20111;-62
2021/01/04 11:12:49;;;;;;;5.22;3.42;;;21.10;41.50;;;;;;6274436;28;20032;-60
2021/01/04 11:15:50;;;;;;;18.02;3.47;;;21.20;39.70;;;;;;6277512;28;20036;-61
2021/01/04 11:18:55;;;;;;;10.13;3.42;;;21.20;38.80;;;;;;6277108;28;20100;-58
2021/01/04 11:21:56;;;;;;;6.65;3.15;;;21.20;40.80;;;;;;6277098;28;20074;-61
2021/01/04 11:24:57;;;;;;;4.47;2.95;;;21.30;39.90;;;;;;6276288;28;20028;-61
2021/01/04 11:27:58;;;;;;;5.00;3.08;;;21.30;40.20;;;;;;6293804;28;20170;-60
2021/01/04 11:30:58;;;;;;;6.22;3.10;;;21.40;41.20;;;;;;6276963;28;20028;-60
2021/01/04 11:34:00;;;;;;;5.50;2.92;;;21.40;41.40;;;;;;6274221;28;20508;-61
2021/01/04 11:37:00;;;;;;;5.20;3.00;;;21.40;41.50;;;;;;6310668;28;20025;-61
2021/01/04 11:40:01;;;;;;;8.15;3.20;;;21.40;41.70;;;;;;6276631;28;20065;-61
2021/01/04 11:43:02;;;;;;;5.50;2.53;;;21.40;40.90;;;;;;6272451;28;20017;-61
2021/01/04 11:46:02;;;;;;;4.63;2.75;;;21.50;40.70;;;;;;6268403;28;20386;-61
2021/01/04 11:49:04;;;;;;;9.02;3.25;;;21.50;41.40;;;;;;6276715;28;20025;-60
2021/01/04 11:52:04;;;;;;;10.63;3.45;;;21.50;41.30;;;;;;6276112;28;20028;-61
2021/01/04 11:55:09;;;;;;;4.35;2.72;;;21.50;42.10;;;;;;6276133;28;20447;-61
2021/01/04 11:58:10;;;;;;;6.45;2.80;;;21.40;42.40;;;;;;6255778;28;20039;-61
2021/01/04 12:01:10;;;;;;;5.10;3.30;;;21.40;42.60;;;;;;6276047;28;20051;-61
2021/01/04 12:04:11;;;;;;;4.15;2.92;;;21.30;42.60;;;;;;6277026;28;20021;-61
2021/01/04 12:07:14;;;;;;;3.80;2.90;;;21.30;43.10;;;;;;6294057;28;20033;-61
2021/01/04 12:10:15;;;;;;;5.13;3.05;;;21.30;42.80;;;;;;6275507;28;20031;-61
2021/01/04 12:13:16;;;;;;;4.10;2.80;;;21.30;42.80;;;;;;6275381;28;20436;-61
2021/01/04 12:16:18;;;;;;;4.47;2.78;;;21.30;42.90;;;;;;6275869;28;20123;-61
2021/01/04 12:19:18;;;;;;;7.28;3.30;;;21.30;42.90;;;;;;6275707;28;20098;-61
2021/01/04 12:22:19;;;;;;;4.00;2.65;;;21.30;43.10;;;;;;6275422;28;20028;-62
2021/01/04 12:25:19;;;;;;;4.22;2.97;;;21.30;43.10;;;;;;6267624;28;20056;-58
2021/01/04 12:28:20;;;;;;;3.92;2.83;;;21.30;43.00;;;;;;6268516;28;20039;-60
2021/01/04 12:31:21;;;;;;;4.15;2.70;;;21.30;43.10;;;;;;6275312;28;20030;-61
2021/01/04 12:34:21;;;;;;;5.20;3.08;;;21.30;43.10;;;;;;6274965;28;20113;-62
2021/01/04 12:37:23;;;;;;;4.82;2.67;;;21.30;43.20;;;;;;6275355;28;20143;-59
2021/01/04 12:40:29;;;;;;;4.13;2.95;;;21.30;43.20;;;;;;6266772;28;20493;-61
2021/01/04 12:43:30;;;;;;;4.00;3.03;;;21.30;43.30;;;;;;6274332;28;20025;-59
2021/01/04 12:46:30;;;;;;;4.47;2.97;;;21.30;43.30;;;;;;6267353;28;20082;-62
2021/01/04 12:49:31;;;;;;;4.22;2.85;;;21.30;43.20;;;;;;6291714;28;20028;-63
2021/01/04 12:52:31;;;;;;;4.03;2.85;;;21.30;44.00;;;;;;6274812;28;20035;-62
2021/01/04 12:55:32;;;;;;;4.00;2.70;;;21.30;43.40;;;;;;6266835;28;20024;-62
2021/01/04 12:58:33;;;;;;;4.95;2.95;;;21.30;43.40;;;;;;6284054;28;20025;-61
2021/01/04 13:01:37;;;;;;;4.15;3.00;;;21.30;43.40;;;;;;6266661;28;20021;-60
2021/01/04 13:04:42;;;;;;;5.30;3.00;;;21.30;43.40;;;;;;6291385;28;20024;-61
2021/01/04 13:07:43;;;;;;;5.93;2.50;;;21.30;43.40;;;;;;6275274;28;20551;-61
2021/01/04 13:10:44;;;;;;;4.68;3.08;;;21.30;43.50;;;;;;6273595;28;20024;-62
2021/01/04 13:13:44;;;;;;;5.07;3.20;;;21.30;43.50;;;;;;6267746;28;20389;-59
2021/01/04 13:16:46;;;;;;;5.47;3.42;;;21.30;43.50;;;;;;6274051;28;20031;-61
2021/01/04 13:19:47;;;;;;;4.18;2.97;;;21.30;43.60;;;;;;6274720;28;20040;-61
2021/01/04 13:22:48;;;;;;;4.20;3.00;;;21.30;43.60;;;;;;6274495;28;20017;-61
2021/01/04 13:25:48;;;;;;;5.15;3.00;;;21.20;43.40;;;;;;6291863;28;20389;-62
2021/01/04 13:28:49;;;;;;;6.65;3.22;;;21.20;43.60;;;;;;6274661;28;20028;-62
2021/01/04 13:31:49;;;;;;;11.98;3.40;;;21.20;43.30;;;;;;6271036;28;20071;-60
2021/01/04 13:34:50;;;;;;;4.68;2.95;;;21.30;42.90;;;;;;6279508;28;21011;-59
2021/01/04 13:37:51;;;;;;;21.98;3.63;;;21.30;42.60;;;;;;6252836;28;20943;-62
2021/01/04 13:40:51;;;;;;;12.35;3.35;;;21.40;42.80;;;;;;6273204;28;20025;-59
2021/01/04 13:43:52;;;;;;;8.80;3.20;;;21.60;42.80;;;;;;6271800;28;20025;-63
2021/01/04 13:47:04;;;;;;;21.88;3.22;;;21.60;42.90;;;;;;6271674;28;20028;-60
2021/01/04 13:50:05;;;;;;;12.52;2.58;;;21.60;43.00;;;;;;6277333;28;21453;-59
2021/01/04 13:53:06;;;;;;;7.57;3.03;;;21.60;42.40;;;;;;6272175;28;20413;-57
2021/01/04 13:56:08;;;;;;;8.68;3.10;;;21.60;42.30;;;;;;6280886;28;20119;-57
2021/01/04 13:59:09;;;;;;;7.68;3.05;;;21.60;42.30;;;;;;6265947;28;20516;-59
2021/01/04 14:02:12;;;;;;;5.10;3.25;;;21.70;42.60;;;;;;6268713;28;20139;-56
2021/01/04 14:05:14;;;;;;;11.55;2.60;;;21.70;42.80;;;;;;6272581;28;20517;-57
2021/01/04 14:08:14;;;;;;;5.03;2.60;;;21.60;42.70;;;;;;6268029;28;20021;-58
2021/01/04 14:11:18;;;;;;;4.85;2.63;;;21.70;42.50;;;;;;6282645;28;20024;-60
2021/01/04 14:14:19;;;;;;;4.82;2.67;;;21.70;43.20;;;;;;6276272;28;20560;-60
2021/01/04 14:17:20;;;;;;;4.25;2.50;;;21.70;42.50;;;;;;6272237;28;20024;-59
2021/01/04 14:20:20;;;;;;;8.50;3.03;;;21.70;42.80;;;;;;6273059;28;20864;-58
2021/01/04 14:23:21;;;;;;;15.30;4.03;;;21.60;42.60;;;;;;6269364;28;20020;-60
2021/01/04 14:26:29;;;;;;;19.10;9.52;;;21.20;39.40;;;;;;6284794;28;20033;-61
2021/01/04 14:29:34;;;;;;;16.80;7.53;;;21.00;36.00;;;;;;6294330;28;20048;-60
2021/01/04 14:32:35;;;;;;;;;;;20.90;35.60;;;;;;6284150;28;20166;-63
2021/01/04 14:35:35;;;;;;;11.65;5.70;;;20.80;33.10;;;;;;6277800;28;20096;-67
2021/01/04 14:38:36;;;;;;;10.75;5.63;;;20.80;32.20;;;;;;6283508;28;20029;-66
2021/01/04 14:41:37;;;;;;;12.48;5.90;;;20.80;31.80;;;;;;6287191;28;20043;-64
2021/01/04 14:44:39;;;;;;;16.15;5.95;;;20.80;31.80;;;;;;6277295;28;20103;-61
2021/01/04 14:47:40;;;;;;;13.35;5.15;;;20.60;32.60;;;;;;6262686;28;20038;-57
2021/01/04 14:50:40;;;;;;;12.68;5.82;;;20.50;33.10;;;;;;6277974;28;20032;-59
2021/01/04 14:53:42;;;;;;;10.63;4.13;;;20.50;32.50;;;;;;6288508;28;20204;-64
2021/01/04 14:56:43;;;;;;;8.77;3.97;;;20.70;35.60;;;;;;6290168;28;20119;-62
2021/01/04 14:59:44;;;;;;;5.88;3.40;;;21.00;34.10;;;;;;6286175;28;20031;-62
2021/01/04 15:02:45;;;;;;;9.38;4.00;;;21.20;34.70;;;;;;6281799;28;20453;-64
2021/01/04 15:05:45;;;;;;;6.28;3.20;;;21.30;34.60;;;;;;6272336;28;20029;-62
2021/01/04 15:08:46;;;;;;;10.18;3.63;;;21.40;35.00;;;;;;6274819;28;20034;-66
2021/01/04 15:11:51;;;;;;;8.07;3.85;;;21.50;36.00;;;;;;6270521;28;20480;-61
2021/01/04 15:14:52;;;;;;;7.65;3.33;;;21.40;37.00;;;;;;6277878;28;20021;-62
2021/01/04 15:17:52;;;;;;;6.55;3.30;;;21.50;36.30;;;;;;6294868;28;20083;-58
2021/01/04 15:20:53;;;;;;;5.75;3.30;;;21.60;36.60;;;;;;6276772;28;20021;-62
2021/01/04 15:23:53;;;;;;;10.48;4.00;;;21.60;36.60;;;;;;6280498;28;20027;-65
2021/01/04 15:26:54;;;;;;;7.18;3.72;;;21.60;37.50;;;;;;6280882;28;20021;-61
2021/01/04 15:29:54;;;;;;;12.85;4.07;;;21.60;37.30;;;;;;6277460;28;20074;-62
2021/01/04 15:32:55;;;;;;;6.13;3.53;;;21.70;37.30;;;;;;6276958;28;20059;-61
2021/01/04 15:35:56;;;;;;;6.85;3.97;;;21.80;37.50;;;;;;6277026;28;20021;-62
2021/01/04 15:38:56;;;;;;;9.00;3.60;;;21.80;37.70;;;;;;6274835;28;20024;-62
2021/01/04 15:41:59;;;;;;;6.65;3.58;;;21.80;37.80;;;;;;6277097;28;20025;-61
2021/01/04 15:44:59;;;;;;;5.63;3.53;;;21.80;37.90;;;;;;6276779;28;20406;-62
2021/01/04 15:48:00;;;;;;;8.50;3.20;;;21.90;38.10;;;;;;6279521;28;20043;-61
2021/01/04 15:51:01;;;;;;;7.45;3.03;;;21.90;38.30;;;;;;6278687;28;20028;-62
2021/01/04 15:54:01;;;;;;;5.22;3.28;;;21.90;38.50;;;;;;6293683;28;20047;-62
2021/01/04 15:57:02;;;;;;;6.90;3.92;;;21.90;38.50;;;;;;6276959;28;20031;-61
2021/01/04 16:00:07;;;;;;;7.57;2.88;;;22.00;38.70;;;;;;6277336;28;20027;-63
2021/01/04 16:03:08;;;;;;;4.95;2.97;;;22.00;38.80;;;;;;6259121;28;20561;-62
2021/01/04 16:06:13;;;;;;;6.80;2.75;;;22.00;38.90;;;;;;6292746;28;20035;-61
2021/01/04 16:09:15;;;;;;;8.32;3.20;;;22.00;39.00;;;;;;6276765;28;20029;-59
2021/01/04 16:12:16;;;;;;;5.75;2.97;;;22.00;39.10;;;;;;6267523;28;20057;-60
2021/01/04 16:15:17;;;;;;;6.47;3.20;;;22.00;39.30;;;;;;6279738;28;20027;-62
2021/01/04 16:18:17;;;;;;;5.68;3.25;;;22.00;39.30;;;;;;6291056;28;20034;-62
2021/01/04 16:21:26;;;;;;;6.35;3.40;;;22.00;39.50;;;;;;6276536;28;20473;-60
2021/01/04 16:24:27;;;;;;;5.18;3.30;;;22.00;39.50;;;;;;6267781;28;20027;-62